Weather at Kagiswil Airport

Public forecast

Using degrees Celsius for public forecast. Weather courtesy of forecast.io.

Closest aviation weather report (METAR) to Kagiswil Airport

Closest report is Alpnach Air Base, 2.5 nm (4.6 km) NNE. Retrieved 2020/10/25 16:20 UTC (15 minutes ago):

LSMA 251620Z AUTO VRB02KT 9999NDV NCD 11/09 Q1008 RMK

Closest aviation forecast (TAF) to Kagiswil Airport

Forecast is more than 6 hours old.

Closest forecast is Alpnach Air Base, 2.5 nm (4.6 km) NNE. Retrieved 2020/10/25 10:00 UTC (7 hours ago):

TAF LSMA 250925Z 2510/2616 VRB03KT CAVOK PROB30 TEMPO 2510/2512 FEW003 BECMG 2521/2524 9999 FEW050 BKN100 TEMPO 2604/2616 RA PROB30 TEMPO 2608/2616 5000 BKN012 PROB30 TEMPO 2609/2613 01015G25KT